Relevés horaires Matro (Suisse)


Relevés horaires à Matro - Vendredi 31 Mai 2019
Heure UTC1 Température [°C] Vent [km/h] Hum. [%] Pres.4 [hPa] Visi. [Km] Nébu. [octa] Préc.5 [mm] Cond.
2m. Res. Ros. Dir.2 Vit. Moy. Raf.3
23:00 7.0 3.2 0.3 NO 24.1 -- 31.5 62 850(0.1/3h) -- -- -- --
22:00 6.7 2.8 0.7 NNO 24.1 -- 46.3 65 850(0.4/3h) -- -- -- --
21:00 6.9 2.9 0.9 NNO 25.9 -- 42.6 66 850(0.3/3h) -- -- -- --
20:00 7.0 3 0.8 NNO 25.9 -- 42.6 65 850(0.1/3h) -- -- -- --
19:00 7.7 3.7 0.8 NNO 27.8 -- 38.9 62 850(-0.1/3h) -- -- -- --
18:00 8.5 4.9 0.5 NNO 25.9 -- 37.0 57 850(-0.1/3h) -- -- -- --
17:00 9.1 5.7 0.1 NO 25.9 -- 35.2 53 850(-0.3/3h) -- -- -- --
16:00 9.3 6.5 -0.1 NO 20.4 -- 29.6 52 850(-0.3/3h) -- -- -- --
15:00 9.6 7.4 -0.1 NO 14.8 -- 35.2 51 850(-0.1/3h) -- -- -- --
14:00 9.3 7.3 -0.1 NNO 13.0 -- 35.2 52 850(0.1/3h) -- -- -- --
13:00 9.0 6.7 -1.2 NNO 14.8 -- 31.5 49 850(0.1/3h) -- -- -- --
12:00 8.4 5.3 -0.7 NO 20.4 -- 42.6 53 850(0.3/3h) -- -- -- --
11:00 7.8 5 -1.8 NO 16.7 -- 27.8 51 850(0.6/3h) -- -- -- --
10:00 6.9 4.4 -1.8 NO 13.0 -- 22.2 54 850(0.7/3h) -- -- -- --
09:00 6.4 3.8 -2.2 NNO 13.0 -- 42.6 54 850(0.6/3h) -- -- -- --
08:00 5.5 1.4 -3.0 NO 22.2 -- 35.2 54 850(0.6/3h) -- -- -- --
07:00 4.8 0.6 -3.1 NNO 22.2 -- 42.6 56 850(0.6/3h) -- -- -- --
06:00 3.9 -1.3 -3.9 NNO 29.6 -- 51.9 57 850(0.4/3h) -- -- -- --
05:00 3.1 -1.1 -4.2 NNO 18.5 -- 27.8 59 850(0.3/3h) -- -- -- --
04:00 2.9 -2.1 -5.0 NO 24.1 -- 35.2 56 850(0.0/3h) -- -- -- --
03:00 2.8 -2.6 -5.3 NNO 27.8 -- 51.9 55 850(-0.2/3h) -- -- -- --
02:00 2.8 -3 -5.6 NNO 31.5 -- 46.3 54 850(-0.9/3h) -- -- -- --
01:00 2.7 -3.6 -5.1 NNO 37.0 -- 51.9 56 850(-1.1/3h) -- -- -- --
00:00 2.7 -4 -4.3 NNO 42.6 -- 57.4 60 850(-0.9/3h) -- -- -- --

1 Coordinated Universal Time. Actuellement il est 22:00 locale et 20:00 UTC.

2 Le vent souffle depuis la direction indiquée vers la direction oposée.

3 Les rafales max. sont disponible 40 min après l'heure du relevé.

4 Pour les stations d'altitude (plus de 600m) le géopotentiel du niveau le plus proche de la pression obligatoire est indiqué.

5 Les stations disposant d'un diffuseur peuvent indiquer "trace". Cela signifie que des précipitations ont touchés le sol mais que la quantité est inférieure à 0.1 mm.

Copyright

Les données affichées sur cette page sont la propriété exclusive de Météo Suisse.

Récapitulatif de la journée
Température [°C] Vent [km/h] Ensoleillement4 [h] Precipitations totale5 [mm] Pression [Hpa]
Min1 Max.2 Moy.3 Max. Min Max.
2.6 9.8 0 57.4 12 h 42 min 0 850.0 850.0

1 Température minimale relevée entre 18:00 UTC la veille et 18:00 UTC le jour donné.

2 Température maximale relevée entre 06:00 UTC le jour donné et 06:00 UTC le lendemain.

3 Vent moyen de la journée basé sur les relevés horaires.

4 Ensoleillement en heures relevé entre 06:00 UTC la veille et 06:00 UTC le jour donné.

5 Précipitations totales tombées entre 06:00 UTC la jour donné et 06:00 UTC le lendemain.

Graphiques horaires